createdAt,value
2022-08-09T00:01:52.886Z,100.00
2022-08-09T00:05:03.683Z,100.00
2022-08-09T00:08:32.641Z,100.00
2022-08-09T00:12:03.236Z,100.00
2022-08-09T00:14:58.473Z,100.00
2022-08-09T00:18:11.372Z,100.00
2022-08-09T00:21:14.682Z,100.00
2022-08-09T00:24:19.849Z,100.00
2022-08-09T00:27:22.218Z,100.00
2022-08-09T00:30:26.723Z,100.00
2022-08-09T00:33:32.794Z,100.00
2022-08-09T00:36:52.037Z,100.00
2022-08-09T00:40:12.595Z,100.00
2022-08-09T00:44:10.531Z,100.00
2022-08-09T00:46:56.358Z,100.00
2022-08-09T00:50:01.475Z,100.00
2022-08-09T00:53:10.175Z,100.00
2022-08-09T00:56:15.216Z,100.00
2022-08-09T00:59:40.401Z,100.00
2022-08-09T01:02:47.245Z,100.00
2022-08-09T01:06:20.497Z,100.00
2022-08-09T01:09:37.913Z,100.00
2022-08-09T01:12:47.176Z,100.00
2022-08-09T01:15:54.700Z,100.00
2022-08-09T01:19:02.651Z,100.00
2022-08-09T01:22:55.230Z,100.00
2022-08-09T01:26:19.009Z,100.00
2022-08-09T01:29:55.494Z,100.00
2022-08-09T01:33:00.344Z,100.00
2022-08-09T01:36:09.042Z,100.00
2022-08-09T01:39:11.618Z,100.00
2022-08-09T01:42:16.186Z,100.00
2022-08-09T01:45:19.349Z,100.00
2022-08-09T01:48:29.802Z,100.00
2022-08-09T01:51:34.108Z,100.00
2022-08-09T01:54:41.357Z,100.00
2022-08-09T01:57:46.002Z,100.00
2022-08-09T02:00:50.577Z,100.00
2022-08-09T02:03:53.798Z,100.00
2022-08-09T02:07:17.973Z,100.00
2022-08-09T02:10:29.716Z,100.00
2022-08-09T02:13:37.540Z,100.00
2022-08-09T02:16:59.755Z,100.00
2022-08-09T02:20:07.024Z,100.00
2022-08-09T02:23:13.844Z,100.00
2022-08-09T02:26:25.219Z,100.00
2022-08-09T02:29:32.759Z,100.00
2022-08-09T02:32:38.745Z,100.00
2022-08-09T02:36:01.943Z,100.00
2022-08-09T02:39:14.471Z,100.00
2022-08-09T02:42:34.186Z,100.00
2022-08-09T02:45:42.746Z,100.00
2022-08-09T02:48:47.472Z,100.00
2022-08-09T02:51:56.599Z,100.00
2022-08-09T02:55:03.186Z,100.00
2022-08-09T02:58:35.894Z,100.00
2022-08-09T03:02:05.745Z,100.00
2022-08-09T03:05:04.449Z,100.00
2022-08-09T03:08:09.540Z,100.00
2022-08-09T03:11:15.292Z,100.00
2022-08-09T03:14:38.513Z,100.00
2022-08-09T03:17:44.013Z,100.00
2022-08-09T03:20:46.486Z,100.00
2022-08-09T03:24:04.490Z,100.00
2022-08-09T03:27:09.465Z,100.00
2022-08-09T03:30:33.144Z,100.00
2022-08-09T03:33:54.718Z,100.00
2022-08-09T03:36:59.567Z,100.00
2022-08-09T03:40:02.378Z,100.00
2022-08-09T03:43:07.256Z,100.00
2022-08-09T03:46:20.516Z,100.00
2022-08-09T03:49:32.811Z,100.00
2022-08-09T03:52:39.221Z,100.00
2022-08-09T03:55:42.389Z,100.00
2022-08-09T03:58:44.908Z,100.00
2022-08-09T04:01:50.116Z,100.00
2022-08-09T04:04:53.675Z,100.00
2022-08-09T04:07:56.773Z,100.00
2022-08-09T04:11:01.312Z,100.00
2022-08-09T04:14:53.185Z,100.00
2022-08-09T04:17:26.339Z,100.00
2022-08-09T04:20:32.681Z,100.00
2022-08-09T04:23:35.086Z,100.00
2022-08-09T04:26:38.364Z,100.00
2022-08-09T04:29:40.657Z,100.00
2022-08-09T04:32:52.546Z,100.00
2022-08-09T04:35:56.469Z,99.61
2022-08-09T04:39:00.855Z,98.05
2022-08-09T04:42:03.374Z,93.28
2022-08-09T04:45:06.283Z,93.48
2022-08-09T04:48:10.519Z,88.28
2022-08-09T04:51:12.981Z,91.53
2022-08-09T04:54:20.088Z,91.95
2022-08-09T04:57:24.383Z,92.31
2022-08-09T05:00:31.954Z,92.08
2022-08-09T05:03:43.266Z,90.58
2022-08-09T05:06:46.242Z,87.68
2022-08-09T05:09:52.859Z,85.55
2022-08-09T05:12:55.069Z,79.67
2022-08-09T05:15:57.274Z,79.66
2022-08-09T05:19:00.511Z,82.69
2022-08-09T05:22:05.104Z,79.90
2022-08-09T05:25:28.324Z,82.33
2022-08-09T05:28:34.878Z,84.48
2022-08-09T05:31:46.614Z,83.99
2022-08-09T05:34:52.845Z,87.10
2022-08-09T05:37:57.143Z,86.66
2022-08-09T05:41:01.055Z,87.23
2022-08-09T05:44:03.562Z,90.76
2022-08-09T05:47:07.670Z,91.11
2022-08-09T05:50:26.882Z,91.46
2022-08-09T05:53:37.239Z,91.22
2022-08-09T05:56:56.710Z,91.92
2022-08-09T05:59:59.050Z,87.99
2022-08-09T06:03:03.616Z,87.20
2022-08-09T06:06:06.494Z,86.02
2022-08-09T06:09:09.974Z,84.73
2022-08-09T06:12:31.406Z,82.54
2022-08-09T06:15:33.850Z,81.85
2022-08-09T06:18:36.534Z,81.16
2022-08-09T06:21:39.669Z,81.22
2022-08-09T06:24:52.756Z,80.24
2022-08-09T06:27:55.374Z,77.29
2022-08-09T06:30:57.604Z,76.43
2022-08-09T06:33:59.880Z,74.18
2022-08-09T06:37:02.107Z,69.80
2022-08-09T06:40:21.985Z,70.98
2022-08-09T06:43:26.556Z,69.58
2022-08-09T06:46:39.578Z,69.25
2022-08-09T06:50:11.613Z,69.53
2022-08-09T06:53:05.883Z,70.70
2022-08-09T06:56:09.126Z,68.33
2022-08-09T07:00:50.247Z,65.81
2022-08-09T07:02:34.256Z,64.90
2022-08-09T07:06:02.240Z,64.02
2022-08-09T07:09:01.585Z,67.06
2022-08-09T07:12:04.220Z,66.64
2022-08-09T07:15:53.825Z,66.92
2022-08-09T07:18:29.525Z,64.36
2022-08-09T07:21:36.575Z,62.34
2022-08-09T07:24:40.775Z,60.81
2022-08-09T07:27:53.559Z,56.80
2022-08-09T07:30:57.945Z,58.65
2022-08-09T07:34:00.136Z,55.73
2022-08-09T07:37:02.606Z,53.92
2022-08-09T07:40:05.584Z,54.39
2022-08-09T07:43:16.610Z,53.20
2022-08-09T07:46:19.694Z,53.66
2022-08-09T07:49:21.981Z,49.65
2022-08-09T07:52:24.239Z,50.29
2022-08-09T07:55:28.647Z,53.62
2022-08-09T07:58:31.057Z,50.10
2022-08-09T08:01:34.588Z,46.70
2022-08-09T08:04:37.338Z,50.38
2022-08-09T08:08:43.083Z,49.17
2022-08-09T08:11:03.459Z,50.02
2022-08-09T08:14:25.779Z,49.54
2022-08-09T08:17:52.423Z,49.24
2022-08-09T08:20:51.207Z,50.20
2022-08-09T08:23:55.959Z,49.26
2022-08-09T08:26:58.588Z,47.09
2022-08-09T08:30:03.711Z,46.76
2022-08-09T08:33:06.805Z,48.83
2022-08-09T08:36:14.274Z,45.42
2022-08-09T08:39:31.702Z,45.25
2022-08-09T08:42:43.361Z,45.12
2022-08-09T08:46:03.750Z,46.01
2022-08-09T08:49:12.858Z,45.14
2022-08-09T08:55:52.612Z,44.33
2022-08-09T08:58:55.094Z,44.82
2022-08-09T09:01:59.554Z,45.67
2022-08-09T09:05:02.942Z,45.22
2022-08-09T09:08:31.067Z,46.52
2022-08-09T09:11:38.470Z,43.39
2022-08-09T09:14:42.569Z,46.74
2022-08-09T09:17:49.098Z,43.75
2022-08-09T09:20:55.196Z,45.19
2022-08-09T09:24:04.758Z,45.66
2022-08-09T09:28:04.619Z,44.92
2022-08-09T09:30:57.613Z,43.29
2022-08-09T09:34:14.203Z,43.21
2022-08-09T09:37:31.802Z,42.67
2022-08-09T09:40:42.269Z,40.55
2022-08-09T09:44:12.989Z,42.18
2022-08-09T09:47:16.652Z,44.47
2022-08-09T09:50:49.727Z,44.29
2022-08-09T09:54:19.095Z,43.78
2022-08-09T09:58:02.195Z,44.15
2022-08-09T10:00:58.701Z,42.46
2022-08-09T10:04:08.709Z,42.71
2022-08-09T10:07:23.937Z,42.61
2022-08-09T10:10:31.616Z,44.61
2022-08-09T10:13:43.593Z,46.53
2022-08-09T10:16:56.563Z,46.05
2022-08-09T10:20:32.493Z,48.54
2022-08-09T10:23:38.294Z,46.20
2022-08-09T10:26:42.475Z,46.04
2022-08-09T10:30:16.513Z,45.57
2022-08-09T10:33:29.592Z,45.51
2022-08-09T10:36:34.115Z,42.92
2022-08-09T10:39:40.856Z,43.95
2022-08-09T10:42:53.137Z,40.82
2022-08-09T10:46:00.066Z,39.74
2022-08-09T10:49:17.445Z,40.33
2022-08-09T10:52:37.410Z,42.04
2022-08-09T10:55:58.217Z,40.41
2022-08-09T10:59:23.346Z,42.22
2022-08-09T11:03:15.797Z,41.40
2022-08-09T11:06:25.377Z,42.39
2022-08-09T11:09:41.191Z,42.57
2022-08-09T11:13:49.370Z,43.02
2022-08-09T11:16:39.362Z,41.87
2022-08-09T11:20:11.184Z,41.78
2022-08-09T11:23:23.962Z,40.18
2022-08-09T11:26:40.020Z,40.10
2022-08-09T11:30:02.304Z,40.73
2022-08-09T11:33:26.037Z,42.87
2022-08-09T11:36:42.344Z,43.41
2022-08-09T11:40:01.399Z,42.23
2022-08-09T11:43:05.384Z,41.35
2022-08-09T11:46:08.972Z,41.37
2022-08-09T11:49:16.992Z,41.38
2022-08-09T11:53:16.695Z,40.32
2022-08-09T11:56:14.288Z,40.42
2022-08-09T11:59:30.119Z,40.70
2022-08-09T12:02:53.726Z,39.65
2022-08-09T12:05:58.530Z,39.48
2022-08-09T12:09:02.037Z,39.69
2022-08-09T12:12:12.880Z,38.55
2022-08-09T12:15:48.906Z,38.99
2022-08-09T12:18:53.878Z,39.71
2022-08-09T12:22:00.915Z,40.62
2022-08-09T12:25:31.858Z,40.16
2022-08-09T12:29:00.307Z,40.93
2022-08-09T12:32:10.970Z,41.37
2022-08-09T12:35:19.336Z,40.01
2022-08-09T12:38:29.710Z,40.79
2022-08-09T12:41:40.553Z,40.94
2022-08-09T12:44:46.624Z,41.13
2022-08-09T12:47:54.846Z,40.95
2022-08-09T12:50:58.184Z,41.01
2022-08-09T12:54:03.042Z,40.48
2022-08-09T12:57:05.622Z,39.94
2022-08-09T13:00:18.391Z,40.08
2022-08-09T13:03:58.533Z,40.89
2022-08-09T13:06:54.100Z,41.10
2022-08-09T13:10:03.153Z,41.56
2022-08-09T13:13:10.278Z,41.92
2022-08-09T13:16:15.826Z,40.05
2022-08-09T13:20:08.665Z,41.69
2022-08-09T13:23:16.417Z,40.87
2022-08-09T13:26:36.928Z,41.29
2022-08-09T13:30:02.988Z,42.32
2022-08-09T13:33:01.928Z,40.89
2022-08-09T13:36:39.203Z,41.16
2022-08-09T13:41:46.489Z,42.93
2022-08-09T13:42:50.273Z,42.01
2022-08-09T13:46:43.633Z,40.76
2022-08-09T13:49:18.116Z,41.40
2022-08-09T13:52:21.104Z,41.86
2022-08-09T13:55:23.276Z,42.18
2022-08-09T13:58:25.641Z,42.88
2022-08-09T14:01:56.658Z,41.43
2022-08-09T14:04:59.688Z,40.96
2022-08-09T14:08:04.592Z,41.42
2022-08-09T14:11:15.973Z,40.79
2022-08-09T14:14:25.727Z,40.70
2022-08-09T14:17:32.739Z,40.45
2022-08-09T14:20:52.793Z,39.95
2022-08-09T14:23:57.001Z,40.13
2022-08-09T14:27:01.245Z,40.64
2022-08-09T14:30:36.325Z,39.67
2022-08-09T14:33:27.043Z,39.15
2022-08-09T14:36:39.889Z,38.80
2022-08-09T14:39:48.349Z,39.17
2022-08-09T14:42:51.113Z,40.33
2022-08-09T14:46:55.436Z,38.15
2022-08-09T14:49:16.169Z,37.41
2022-08-09T14:52:18.540Z,38.41
2022-08-09T14:55:21.346Z,38.58
2022-08-09T14:58:23.693Z,38.49
2022-08-09T15:01:28.461Z,39.14
2022-08-09T15:04:33.740Z,38.75
2022-08-09T15:07:36.102Z,39.26
2022-08-09T15:10:38.980Z,38.15
2022-08-09T15:13:56.163Z,39.47
2022-08-09T15:17:07.598Z,39.28
2022-08-09T15:20:15.253Z,39.87
2022-08-09T15:24:02.513Z,39.35
2022-08-09T15:26:46.021Z,39.20
2022-08-09T15:30:57.554Z,41.26
2022-08-09T15:33:23.229Z,40.08
2022-08-09T15:36:30.664Z,41.21
2022-08-09T15:39:43.804Z,39.79
2022-08-09T15:42:55.112Z,39.47
2022-08-09T15:46:28.222Z,39.85
2022-08-09T15:49:23.771Z,39.61
2022-08-09T15:52:26.292Z,39.98
2022-08-09T15:55:29.061Z,39.82
2022-08-09T15:58:37.440Z,39.50
2022-08-09T16:01:41.635Z,39.39
2022-08-09T16:04:45.171Z,40.28
2022-08-09T16:07:51.916Z,42.26
2022-08-09T16:10:55.840Z,40.02
2022-08-09T16:14:02.864Z,40.61
2022-08-09T16:17:08.914Z,40.52
2022-08-09T16:20:12.838Z,40.07
2022-08-09T16:23:15.179Z,40.35
2022-08-09T16:26:34.940Z,40.22
2022-08-09T16:29:50.037Z,39.65
2022-08-09T16:33:09.432Z,38.69
2022-08-09T16:36:15.953Z,39.88
2022-08-09T16:39:20.859Z,39.42
2022-08-09T16:42:23.873Z,39.78
2022-08-09T16:45:27.428Z,40.19
2022-08-09T16:48:50.544Z,40.20
2022-08-09T16:51:55.203Z,39.88
2022-08-09T16:54:57.718Z,42.01
2022-08-09T16:58:09.834Z,40.11
2022-08-09T17:01:13.627Z,40.28
2022-08-09T17:04:26.114Z,40.27
2022-08-09T17:08:45.078Z,40.31
2022-08-09T17:10:53.289Z,40.50
2022-08-09T17:14:00.956Z,40.85
2022-08-09T17:17:13.009Z,41.11
2022-08-09T17:20:32.573Z,40.31
2022-08-09T17:24:28.400Z,40.30
2022-08-09T17:27:02.015Z,40.45
2022-08-09T17:30:12.626Z,40.82
2022-08-09T17:33:22.284Z,41.09
2022-08-09T17:36:25.322Z,40.55
2022-08-09T17:39:52.822Z,40.94
2022-08-09T17:42:55.739Z,41.23
2022-08-09T17:46:06.859Z,40.43
2022-08-09T17:49:09.978Z,40.77
2022-08-09T17:52:22.133Z,40.77
2022-08-09T17:55:24.850Z,40.41
2022-08-09T17:58:47.534Z,40.69
2022-08-09T18:02:07.786Z,40.55
2022-08-09T18:05:12.919Z,40.84
2022-08-09T18:08:16.140Z,41.54
2022-08-09T18:11:23.747Z,41.81
2022-08-09T18:14:26.732Z,41.13
2022-08-09T18:18:02.521Z,41.09
2022-08-09T18:20:56.143Z,40.63
2022-08-09T18:24:10.445Z,40.97
2022-08-09T18:27:59.898Z,40.98
2022-08-09T18:30:48.657Z,41.21
2022-08-09T18:33:53.268Z,39.79
2022-08-09T18:36:56.150Z,39.80
2022-08-09T18:39:58.520Z,39.83
2022-08-09T18:43:00.807Z,39.47
2022-08-09T18:46:49.929Z,39.56
2022-08-09T18:49:27.593Z,39.47
2022-08-09T18:52:35.519Z,39.58
2022-08-09T18:55:56.123Z,39.72
2022-08-09T18:59:01.015Z,38.98
2022-08-09T19:02:04.535Z,38.82
2022-08-09T19:05:20.452Z,38.64
2022-08-09T19:08:31.505Z,39.06
2022-08-09T19:11:35.194Z,39.50
2022-08-09T19:14:40.356Z,38.15
2022-08-09T19:17:54.425Z,38.43
2022-08-09T19:20:58.904Z,38.36
2022-08-09T19:24:37.524Z,38.26
2022-08-09T19:27:28.502Z,38.83
2022-08-09T19:30:32.464Z,38.96
2022-08-09T19:33:35.414Z,38.80
2022-08-09T19:36:37.658Z,38.81
2022-08-09T19:40:04.666Z,38.86
2022-08-09T19:43:10.258Z,39.03
2022-08-09T19:46:34.006Z,38.74
2022-08-09T19:50:07.709Z,38.55
2022-08-09T19:53:04.191Z,38.50
2022-08-09T19:56:07.175Z,38.37
2022-08-09T19:59:39.258Z,38.85
2022-08-09T20:04:23.694Z,38.64
2022-08-09T20:06:04.057Z,38.36
2022-08-09T20:09:06.388Z,37.94
2022-08-09T20:12:09.388Z,38.19
2022-08-09T20:16:38.342Z,38.05
2022-08-09T20:19:42.323Z,38.20
2022-08-09T20:22:14.784Z,38.34
2022-08-09T20:25:22.623Z,38.70
2022-08-09T20:28:34.659Z,38.26
2022-08-09T20:31:51.447Z,39.26
2022-08-09T20:35:10.065Z,39.80
2022-08-09T20:38:22.293Z,40.02
2022-08-09T20:41:37.746Z,39.90
2022-08-09T20:44:40.204Z,40.20
2022-08-09T20:47:53.111Z,39.40
2022-08-09T20:50:58.298Z,39.47
2022-08-09T20:54:00.695Z,39.81
2022-08-09T20:57:06.417Z,40.17
2022-08-09T21:00:20.376Z,41.06
2022-08-09T21:04:07.625Z,40.85
2022-08-09T21:06:55.943Z,41.51
2022-08-09T21:09:58.714Z,41.71
2022-08-09T21:13:01.299Z,41.63
2022-08-09T21:16:04.336Z,41.53
2022-08-09T21:20:17.937Z,41.33
2022-08-09T21:22:46.906Z,41.40
2022-08-09T21:25:59.813Z,40.53
2022-08-09T21:29:02.365Z,40.47
2022-08-09T21:32:18.804Z,40.87
2022-08-09T21:35:21.949Z,40.82
2022-08-09T21:38:31.286Z,40.58
2022-08-09T21:42:03.746Z,40.91
2022-08-09T21:44:57.114Z,40.48
2022-08-09T21:47:59.730Z,40.09
2022-08-09T21:51:01.955Z,41.15
2022-08-09T21:54:04.920Z,40.97
2022-08-09T21:57:07.083Z,41.38
2022-08-09T22:00:33.175Z,41.25
2022-08-09T22:03:36.773Z,42.10
2022-08-09T22:06:59.104Z,41.78
2022-08-09T22:10:08.668Z,42.18
2022-08-09T22:13:11.571Z,42.34
2022-08-09T22:16:13.881Z,42.47
2022-08-09T22:19:57.762Z,43.02
2022-08-09T22:22:39.974Z,42.56
2022-08-09T22:26:08.075Z,42.95
2022-08-09T22:29:07.432Z,43.20
2022-08-09T22:32:29.437Z,43.52
2022-08-09T22:36:00.794Z,43.34
2022-08-09T22:38:54.597Z,43.95
2022-08-09T22:41:56.915Z,44.27
2022-08-09T22:48:10.862Z,43.78
2022-08-09T22:48:36.242Z,44.09
2022-08-09T22:51:49.436Z,44.02
2022-08-09T22:54:52.163Z,44.80
2022-08-09T22:57:59.630Z,46.18
2022-08-09T23:01:03.815Z,47.75
2022-08-09T23:04:07.535Z,47.68
2022-08-09T23:08:23.128Z,47.27
2022-08-09T23:10:50.517Z,48.09
2022-08-09T23:13:53.713Z,48.98
2022-08-09T23:16:55.994Z,48.87
2022-08-09T23:20:06.276Z,49.04
2022-08-09T23:23:09.841Z,48.52
2022-08-09T23:26:12.023Z,48.84
2022-08-09T23:29:14.256Z,49.37
2022-08-09T23:32:16.558Z,48.76
2022-08-09T23:35:18.780Z,48.64
2022-08-09T23:38:21.353Z,48.13
2022-08-09T23:41:27.746Z,47.88
2022-08-09T23:44:31.714Z,48.27
2022-08-09T23:47:33.912Z,48.48
2022-08-09T23:50:36.397Z,50.50
2022-08-09T23:53:38.766Z,50.25
2022-08-09T23:56:54.626Z,51.45
